sensor_id;sensor_type;location;lat;lon;timestamp;P1;durP1;ratioP1;P2;durP2;ratioP2
29848;SDS011;16728;50.832;5.590;2023-06-22T00:01:45;4.80;;;4.30;;
29848;SDS011;16728;50.832;5.590;2023-06-22T00:04:47;6.80;;;4.15;;
29848;SDS011;16728;50.832;5.590;2023-06-22T00:07:49;4.32;;;3.92;;
29848;SDS011;16728;50.832;5.590;2023-06-22T00:10:51;4.28;;;3.88;;
29848;SDS011;16728;50.832;5.590;2023-06-22T00:13:53;4.43;;;4.03;;
29848;SDS011;16728;50.832;5.590;2023-06-22T00:16:55;6.50;;;4.90;;
29848;SDS011;16728;50.832;5.590;2023-06-22T00:19:58;4.68;;;3.85;;
29848;SDS011;16728;50.832;5.590;2023-06-22T00:23:01;7.85;;;4.57;;
29848;SDS011;16728;50.832;5.590;2023-06-22T00:26:09;4.93;;;4.22;;
29848;SDS011;16728;50.832;5.590;2023-06-22T00:29:12;6.47;;;4.50;;
29848;SDS011;16728;50.832;5.590;2023-06-22T00:32:14;5.43;;;4.30;;
29848;SDS011;16728;50.832;5.590;2023-06-22T00:35:17;4.95;;;3.83;;
29848;SDS011;16728;50.832;5.590;2023-06-22T00:38:19;7.43;;;4.82;;
29848;SDS011;16728;50.832;5.590;2023-06-22T00:41:22;5.07;;;4.22;;
29848;SDS011;16728;50.832;5.590;2023-06-22T00:44:25;5.05;;;4.55;;
29848;SDS011;16728;50.832;5.590;2023-06-22T00:47:27;4.60;;;4.10;;
29848;SDS011;16728;50.832;5.590;2023-06-22T00:50:31;4.57;;;4.00;;
29848;SDS011;16728;50.832;5.590;2023-06-22T00:53:38;6.15;;;4.53;;
29848;SDS011;16728;50.832;5.590;2023-06-22T00:56:41;5.53;;;4.50;;
29848;SDS011;16728;50.832;5.590;2023-06-22T00:59:47;7.03;;;4.53;;
29848;SDS011;16728;50.832;5.590;2023-06-22T01:02:51;4.72;;;4.32;;
29848;SDS011;16728;50.832;5.590;2023-06-22T01:12:16;6.47;;;4.45;;
29848;SDS011;16728;50.832;5.590;2023-06-22T01:15:28;4.55;;;4.13;;
29848;SDS011;16728;50.832;5.590;2023-06-22T01:18:36;4.85;;;4.35;;
29848;SDS011;16728;50.832;5.590;2023-06-22T01:21:42;7.22;;;4.45;;
29848;SDS011;16728;50.832;5.590;2023-06-22T01:28:43;5.10;;;4.38;;
29848;SDS011;16728;50.832;5.590;2023-06-22T01:31:54;7.60;;;4.60;;
29848;SDS011;16728;50.832;5.590;2023-06-22T01:34:57;6.53;;;4.40;;
29848;SDS011;16728;50.832;5.590;2023-06-22T01:38:02;6.07;;;4.45;;
29848;SDS011;16728;50.832;5.590;2023-06-22T01:41:04;6.63;;;4.60;;
29848;SDS011;16728;50.832;5.590;2023-06-22T01:44:07;6.30;;;4.20;;
29848;SDS011;16728;50.832;5.590;2023-06-22T01:50:12;5.10;;;4.35;;
29848;SDS011;16728;50.832;5.590;2023-06-22T01:53:14;6.22;;;4.82;;
29848;SDS011;16728;50.832;5.590;2023-06-22T01:56:16;6.35;;;4.57;;
29848;SDS011;16728;50.832;5.590;2023-06-22T01:59:25;5.22;;;4.10;;
29848;SDS011;16728;50.832;5.590;2023-06-22T02:02:43;5.55;;;4.75;;
29848;SDS011;16728;50.832;5.590;2023-06-22T02:05:56;6.05;;;4.80;;
29848;SDS011;16728;50.832;5.590;2023-06-22T02:09:11;6.60;;;5.05;;
29848;SDS011;16728;50.832;5.590;2023-06-22T02:12:17;7.15;;;4.65;;
29848;SDS011;16728;50.832;5.590;2023-06-22T02:15:22;5.28;;;4.65;;
29848;SDS011;16728;50.832;5.590;2023-06-22T02:18:25;6.43;;;5.03;;
29848;SDS011;16728;50.832;5.590;2023-06-22T02:21:28;8.98;;;4.97;;
29848;SDS011;16728;50.832;5.590;2023-06-22T02:24:32;5.95;;;4.72;;
29848;SDS011;16728;50.832;5.590;2023-06-22T02:27:35;7.13;;;5.50;;
29848;SDS011;16728;50.832;5.590;2023-06-22T02:30:37;6.72;;;5.65;;
29848;SDS011;16728;50.832;5.590;2023-06-22T02:33:39;10.02;;;6.47;;
29848;SDS011;16728;50.832;5.590;2023-06-22T02:36:41;7.90;;;6.25;;
29848;SDS011;16728;50.832;5.590;2023-06-22T02:39:52;8.57;;;7.20;;
29848;SDS011;16728;50.832;5.590;2023-06-22T02:42:54;8.35;;;7.07;;
29848;SDS011;16728;50.832;5.590;2023-06-22T02:45:57;8.27;;;7.30;;
29848;SDS011;16728;50.832;5.590;2023-06-22T02:48:59;10.30;;;7.93;;
29848;SDS011;16728;50.832;5.590;2023-06-22T02:52:01;10.10;;;8.30;;
29848;SDS011;16728;50.832;5.590;2023-06-22T02:55:03;11.43;;;8.27;;
29848;SDS011;16728;50.832;5.590;2023-06-22T02:58:05;8.40;;;7.20;;
29848;SDS011;16728;50.832;5.590;2023-06-22T03:01:07;9.23;;;8.32;;
29848;SDS011;16728;50.832;5.590;2023-06-22T03:04:12;10.70;;;8.43;;
29848;SDS011;16728;50.832;5.590;2023-06-22T03:07:15;12.48;;;9.10;;
29848;SDS011;16728;50.832;5.590;2023-06-22T03:10:19;12.10;;;8.35;;
29848;SDS011;16728;50.832;5.590;2023-06-22T03:13:20;11.32;;;8.63;;
29848;SDS011;16728;50.832;5.590;2023-06-22T03:16:22;13.63;;;10.43;;
29848;SDS011;16728;50.832;5.590;2023-06-22T03:19:24;10.90;;;9.23;;
29848;SDS011;16728;50.832;5.590;2023-06-22T03:22:27;12.05;;;9.93;;
29848;SDS011;16728;50.832;5.590;2023-06-22T03:25:29;11.90;;;10.27;;
29848;SDS011;16728;50.832;5.590;2023-06-22T03:28:31;16.80;;;10.93;;
29848;SDS011;16728;50.832;5.590;2023-06-22T03:31:32;12.38;;;10.77;;
29848;SDS011;16728;50.832;5.590;2023-06-22T03:34:35;16.77;;;11.05;;
29848;SDS011;16728;50.832;5.590;2023-06-22T03:37:37;12.90;;;10.20;;
29848;SDS011;16728;50.832;5.590;2023-06-22T03:40:39;14.27;;;11.30;;
29848;SDS011;16728;50.832;5.590;2023-06-22T03:43:41;13.27;;;10.52;;
29848;SDS011;16728;50.832;5.590;2023-06-22T03:46:44;11.48;;;9.00;;
29848;SDS011;16728;50.832;5.590;2023-06-22T03:49:46;16.02;;;10.73;;
29848;SDS011;16728;50.832;5.590;2023-06-22T03:52:53;12.18;;;10.65;;
29848;SDS011;16728;50.832;5.590;2023-06-22T03:58:57;14.75;;;11.90;;
29848;SDS011;16728;50.832;5.590;2023-06-22T04:01:59;14.00;;;11.55;;
29848;SDS011;16728;50.832;5.590;2023-06-22T04:05:01;13.57;;;12.15;;
29848;SDS011;16728;50.832;5.590;2023-06-22T04:08:05;15.73;;;12.32;;
29848;SDS011;16728;50.832;5.590;2023-06-22T04:11:09;15.73;;;12.85;;
29848;SDS011;16728;50.832;5.590;2023-06-22T04:14:11;14.20;;;12.68;;
29848;SDS011;16728;50.832;5.590;2023-06-22T04:17:13;18.98;;;14.30;;
29848;SDS011;16728;50.832;5.590;2023-06-22T04:20:19;18.92;;;14.10;;
29848;SDS011;16728;50.832;5.590;2023-06-22T04:23:21;16.73;;;14.10;;
29848;SDS011;16728;50.832;5.590;2023-06-22T04:26:29;19.95;;;15.63;;
29848;SDS011;16728;50.832;5.590;2023-06-22T04:29:32;21.23;;;15.57;;
29848;SDS011;16728;50.832;5.590;2023-06-22T04:32:35;21.15;;;15.23;;
29848;SDS011;16728;50.832;5.590;2023-06-22T04:35:41;17.83;;;15.13;;
29848;SDS011;16728;50.832;5.590;2023-06-22T04:38:45;20.88;;;16.15;;
29848;SDS011;16728;50.832;5.590;2023-06-22T04:41:47;19.88;;;15.55;;
29848;SDS011;16728;50.832;5.590;2023-06-22T04:44:50;19.77;;;16.33;;
29848;SDS011;16728;50.832;5.590;2023-06-22T04:47:52;23.07;;;17.40;;
29848;SDS011;16728;50.832;5.590;2023-06-22T04:50:54;18.77;;;16.60;;
29848;SDS011;16728;50.832;5.590;2023-06-22T04:53:56;20.25;;;17.05;;
29848;SDS011;16728;50.832;5.590;2023-06-22T04:57:02;23.50;;;18.40;;
29848;SDS011;16728;50.832;5.590;2023-06-22T05:00:06;21.98;;;19.00;;
29848;SDS011;16728;50.832;5.590;2023-06-22T05:03:15;26.15;;;20.30;;
29848;SDS011;16728;50.832;5.590;2023-06-22T05:06:21;23.10;;;19.88;;
29848;SDS011;16728;50.832;5.590;2023-06-22T05:09:26;22.20;;;19.77;;
29848;SDS011;16728;50.832;5.590;2023-06-22T05:12:30;26.85;;;20.67;;
29848;SDS011;16728;50.832;5.590;2023-06-22T05:15:32;25.23;;;20.42;;
29848;SDS011;16728;50.832;5.590;2023-06-22T05:18:38;23.10;;;20.23;;
29848;SDS011;16728;50.832;5.590;2023-06-22T05:21:40;25.95;;;21.67;;
29848;SDS011;16728;50.832;5.590;2023-06-22T05:24:42;25.35;;;19.98;;
29848;SDS011;16728;50.832;5.590;2023-06-22T05:27:45;24.77;;;20.60;;
29848;SDS011;16728;50.832;5.590;2023-06-22T05:30:47;31.65;;;21.80;;
29848;SDS011;16728;50.832;5.590;2023-06-22T05:33:51;23.63;;;20.95;;
29848;SDS011;16728;50.832;5.590;2023-06-22T05:36:54;28.48;;;20.63;;
29848;SDS011;16728;50.832;5.590;2023-06-22T05:39:56;26.63;;;21.33;;
29848;SDS011;16728;50.832;5.590;2023-06-22T05:42:58;25.75;;;21.90;;
29848;SDS011;16728;50.832;5.590;2023-06-22T05:46:03;27.48;;;21.75;;
29848;SDS011;16728;50.832;5.590;2023-06-22T05:49:05;26.15;;;22.50;;
29848;SDS011;16728;50.832;5.590;2023-06-22T05:52:08;24.88;;;22.13;;
29848;SDS011;16728;50.832;5.590;2023-06-22T05:55:14;27.48;;;22.98;;
29848;SDS011;16728;50.832;5.590;2023-06-22T05:58:17;28.02;;;22.58;;
29848;SDS011;16728;50.832;5.590;2023-06-22T06:01:19;25.35;;;22.75;;
29848;SDS011;16728;50.832;5.590;2023-06-22T06:04:21;28.25;;;22.63;;
29848;SDS011;16728;50.832;5.590;2023-06-22T06:07:24;23.77;;;21.20;;
29848;SDS011;16728;50.832;5.590;2023-06-22T06:10:27;27.27;;;23.38;;
29848;SDS011;16728;50.832;5.590;2023-06-22T06:13:31;27.98;;;22.42;;
29848;SDS011;16728;50.832;5.590;2023-06-22T06:16:38;27.58;;;22.08;;
29848;SDS011;16728;50.832;5.590;2023-06-22T06:19:39;25.65;;;22.73;;
29848;SDS011;16728;50.832;5.590;2023-06-22T06:22:41;25.13;;;21.10;;
29848;SDS011;16728;50.832;5.590;2023-06-22T06:25:44;27.23;;;22.95;;
29848;SDS011;16728;50.832;5.590;2023-06-22T06:28:46;26.48;;;22.98;;
29848;SDS011;16728;50.832;5.590;2023-06-22T06:31:48;28.23;;;23.20;;
29848;SDS011;16728;50.832;5.590;2023-06-22T06:34:52;25.02;;;21.88;;
29848;SDS011;16728;50.832;5.590;2023-06-22T06:37:54;33.72;;;23.35;;
29848;SDS011;16728;50.832;5.590;2023-06-22T06:40:57;25.13;;;22.45;;
29848;SDS011;16728;50.832;5.590;2023-06-22T06:43:59;25.83;;;23.15;;
29848;SDS011;16728;50.832;5.590;2023-06-22T06:47:02;26.38;;;22.88;;
29848;SDS011;16728;50.832;5.590;2023-06-22T06:50:04;26.37;;;22.57;;
29848;SDS011;16728;50.832;5.590;2023-06-22T06:53:11;27.90;;;22.88;;
29848;SDS011;16728;50.832;5.590;2023-06-22T06:56:14;27.13;;;22.63;;
29848;SDS011;16728;50.832;5.590;2023-06-22T06:59:17;27.37;;;23.93;;
29848;SDS011;16728;50.832;5.590;2023-06-22T07:02:19;27.52;;;22.48;;
29848;SDS011;16728;50.832;5.590;2023-06-22T07:05:24;24.15;;;21.20;;
29848;SDS011;16728;50.832;5.590;2023-06-22T07:08:47;29.42;;;22.20;;
29848;SDS011;16728;50.832;5.590;2023-06-22T07:11:49;28.45;;;23.27;;
29848;SDS011;16728;50.832;5.590;2023-06-22T07:15:26;26.83;;;21.58;;
29848;SDS011;16728;50.832;5.590;2023-06-22T07:18:28;29.85;;;22.02;;
29848;SDS011;16728;50.832;5.590;2023-06-22T07:21:30;23.63;;;21.13;;
29848;SDS011;16728;50.832;5.590;2023-06-22T07:24:33;28.20;;;22.52;;
29848;SDS011;16728;50.832;5.590;2023-06-22T07:27:38;24.33;;;21.75;;
29848;SDS011;16728;50.832;5.590;2023-06-22T07:30:47;26.17;;;22.77;;
29848;SDS011;16728;50.832;5.590;2023-06-22T07:33:52;30.40;;;22.83;;
29848;SDS011;16728;50.832;5.590;2023-06-22T07:36:54;26.00;;;22.25;;
29848;SDS011;16728;50.832;5.590;2023-06-22T07:40:08;27.45;;;21.85;;
29848;SDS011;16728;50.832;5.590;2023-06-22T07:43:14;28.33;;;23.27;;
29848;SDS011;16728;50.832;5.590;2023-06-22T07:46:19;24.95;;;22.20;;
29848;SDS011;16728;50.832;5.590;2023-06-22T07:50:00;26.52;;;23.63;;
29848;SDS011;16728;50.832;5.590;2023-06-22T07:53:09;25.48;;;22.55;;
29848;SDS011;16728;50.832;5.590;2023-06-22T08:02:38;25.17;;;22.48;;
29848;SDS011;16728;50.832;5.590;2023-06-22T08:05:41;25.77;;;23.08;;
29848;SDS011;16728;50.832;5.590;2023-06-22T08:08:43;26.33;;;22.05;;
29848;SDS011;16728;50.832;5.590;2023-06-22T08:11:49;27.10;;;22.38;;
29848;SDS011;16728;50.832;5.590;2023-06-22T08:14:57;25.45;;;22.75;;
29848;SDS011;16728;50.832;5.590;2023-06-22T08:18:14;23.95;;;21.45;;
29848;SDS011;16728;50.832;5.590;2023-06-22T08:21:16;26.83;;;22.15;;
29848;SDS011;16728;50.832;5.590;2023-06-22T08:24:18;24.98;;;21.92;;
29848;SDS011;16728;50.832;5.590;2023-06-22T08:27:22;27.35;;;22.88;;
29848;SDS011;16728;50.832;5.590;2023-06-22T08:30:25;25.98;;;23.27;;
29848;SDS011;16728;50.832;5.590;2023-06-22T08:33:27;30.27;;;22.85;;
29848;SDS011;16728;50.832;5.590;2023-06-22T08:36:29;27.52;;;23.40;;
29848;SDS011;16728;50.832;5.590;2023-06-22T08:39:36;29.13;;;22.23;;
29848;SDS011;16728;50.832;5.590;2023-06-22T08:42:39;24.92;;;22.33;;
29848;SDS011;16728;50.832;5.590;2023-06-22T08:45:42;26.52;;;22.48;;
29848;SDS011;16728;50.832;5.590;2023-06-22T08:48:46;26.88;;;23.13;;
29848;SDS011;16728;50.832;5.590;2023-06-22T08:51:48;25.93;;;22.90;;
29848;SDS011;16728;50.832;5.590;2023-06-22T08:54:50;26.97;;;22.37;;
29848;SDS011;16728;50.832;5.590;2023-06-22T08:57:56;35.10;;;23.67;;
29848;SDS011;16728;50.832;5.590;2023-06-22T09:00:58;26.02;;;23.38;;
29848;SDS011;16728;50.832;5.590;2023-06-22T09:04:02;25.73;;;23.10;;
29848;SDS011;16728;50.832;5.590;2023-06-22T09:07:09;25.10;;;22.45;;
29848;SDS011;16728;50.832;5.590;2023-06-22T09:10:11;24.33;;;21.63;;
29848;SDS011;16728;50.832;5.590;2023-06-22T09:13:14;23.42;;;20.70;;
29848;SDS011;16728;50.832;5.590;2023-06-22T09:16:16;23.13;;;20.77;;
29848;SDS011;16728;50.832;5.590;2023-06-22T09:19:20;23.95;;;21.25;;
29848;SDS011;16728;50.832;5.590;2023-06-22T09:22:22;27.42;;;22.05;;
29848;SDS011;16728;50.832;5.590;2023-06-22T09:28:35;25.65;;;21.90;;
29848;SDS011;16728;50.832;5.590;2023-06-22T09:31:37;25.40;;;22.73;;
29848;SDS011;16728;50.832;5.590;2023-06-22T09:34:39;24.35;;;21.88;;
29848;SDS011;16728;50.832;5.590;2023-06-22T09:41:00;26.48;;;23.63;;
29848;SDS011;16728;50.832;5.590;2023-06-22T09:47:42;26.02;;;21.27;;
29848;SDS011;16728;50.832;5.590;2023-06-22T09:57:43;27.50;;;23.40;;
29848;SDS011;16728;50.832;5.590;2023-06-22T10:00:45;28.25;;;23.88;;
29848;SDS011;16728;50.832;5.590;2023-06-22T10:03:56;28.10;;;23.83;;
29848;SDS011;16728;50.832;5.590;2023-06-22T10:13:57;30.35;;;27.23;;
29848;SDS011;16728;50.832;5.590;2023-06-22T10:17:09;30.10;;;25.33;;
29848;SDS011;16728;50.832;5.590;2023-06-22T10:35:26;35.33;;;30.70;;
29848;SDS011;16728;50.832;5.590;2023-06-22T10:42:57;35.83;;;31.92;;
29848;SDS011;16728;50.832;5.590;2023-06-22T10:46:09;33.92;;;30.45;;
29848;SDS011;16728;50.832;5.590;2023-06-22T10:49:12;34.90;;;31.20;;
29848;SDS011;16728;50.832;5.590;2023-06-22T10:52:23;36.97;;;32.95;;
29848;SDS011;16728;50.832;5.590;2023-06-22T10:55:25;40.17;;;35.90;;
29848;SDS011;16728;50.832;5.590;2023-06-22T10:58:27;40.47;;;36.10;;
29848;SDS011;16728;50.832;5.590;2023-06-22T11:01:31;40.25;;;34.30;;
29848;SDS011;16728;50.832;5.590;2023-06-22T11:04:48;38.38;;;34.17;;
29848;SDS011;16728;50.832;5.590;2023-06-22T11:07:50;38.67;;;34.47;;
29848;SDS011;16728;50.832;5.590;2023-06-22T11:10:52;39.05;;;34.72;;
29848;SDS011;16728;50.832;5.590;2023-06-22T11:13:59;38.53;;;34.42;;
29848;SDS011;16728;50.832;5.590;2023-06-22T11:17:01;36.13;;;32.42;;
29848;SDS011;16728;50.832;5.590;2023-06-22T11:20:04;35.42;;;31.70;;
29848;SDS011;16728;50.832;5.590;2023-06-22T11:23:14;37.03;;;32.47;;
29848;SDS011;16728;50.832;5.590;2023-06-22T11:26:16;37.78;;;34.05;;
29848;SDS011;16728;50.832;5.590;2023-06-22T11:29:18;43.08;;;38.70;;
29848;SDS011;16728;50.832;5.590;2023-06-22T11:32:37;43.90;;;38.78;;
29848;SDS011;16728;50.832;5.590;2023-06-22T11:35:40;43.55;;;39.10;;
29848;SDS011;16728;50.832;5.590;2023-06-22T11:38:46;43.88;;;38.83;;
29848;SDS011;16728;50.832;5.590;2023-06-22T11:41:48;41.50;;;37.10;;
29848;SDS011;16728;50.832;5.590;2023-06-22T11:44:51;41.25;;;35.63;;
29848;SDS011;16728;50.832;5.590;2023-06-22T11:47:53;38.00;;;33.90;;
29848;SDS011;16728;50.832;5.590;2023-06-22T11:50:56;38.78;;;34.75;;
29848;SDS011;16728;50.832;5.590;2023-06-22T11:54:00;37.83;;;33.83;;
29848;SDS011;16728;50.832;5.590;2023-06-22T11:57:03;36.65;;;32.88;;
29848;SDS011;16728;50.832;5.590;2023-06-22T12:00:05;36.03;;;32.33;;
29848;SDS011;16728;50.832;5.590;2023-06-22T12:03:17;38.75;;;34.33;;
29848;SDS011;16728;50.832;5.590;2023-06-22T12:06:20;37.53;;;33.78;;
29848;SDS011;16728;50.832;5.590;2023-06-22T12:09:22;38.67;;;34.67;;
29848;SDS011;16728;50.832;5.590;2023-06-22T12:12:24;39.60;;;35.47;;
29848;SDS011;16728;50.832;5.590;2023-06-22T12:15:27;39.60;;;35.63;;
29848;SDS011;16728;50.832;5.590;2023-06-22T12:18:29;39.45;;;35.45;;
29848;SDS011;16728;50.832;5.590;2023-06-22T12:21:30;38.03;;;34.10;;
29848;SDS011;16728;50.832;5.590;2023-06-22T12:24:32;45.17;;;38.13;;
29848;SDS011;16728;50.832;5.590;2023-06-22T12:27:35;40.08;;;35.90;;
29848;SDS011;16728;50.832;5.590;2023-06-22T12:30:37;44.23;;;37.37;;
29848;SDS011;16728;50.832;5.590;2023-06-22T12:33:39;41.70;;;37.15;;
29848;SDS011;16728;50.832;5.590;2023-06-22T12:36:41;41.67;;;37.40;;
29848;SDS011;16728;50.832;5.590;2023-06-22T12:39:44;42.22;;;37.70;;
29848;SDS011;16728;50.832;5.590;2023-06-22T12:42:46;41.83;;;37.38;;
29848;SDS011;16728;50.832;5.590;2023-06-22T12:45:48;41.25;;;36.92;;
29848;SDS011;16728;50.832;5.590;2023-06-22T12:48:50;41.40;;;36.03;;
29848;SDS011;16728;50.832;5.590;2023-06-22T12:51:52;41.00;;;36.35;;
29848;SDS011;16728;50.832;5.590;2023-06-22T12:54:54;42.70;;;38.08;;
29848;SDS011;16728;50.832;5.590;2023-06-22T12:57:56;41.53;;;36.72;;
29848;SDS011;16728;50.832;5.590;2023-06-22T13:00:58;40.08;;;35.78;;
29848;SDS011;16728;50.832;5.590;2023-06-22T13:04:00;41.78;;;37.45;;
29848;SDS011;16728;50.832;5.590;2023-06-22T13:07:02;40.92;;;36.72;;
29848;SDS011;16728;50.832;5.590;2023-06-22T13:10:19;43.00;;;38.40;;
29848;SDS011;16728;50.832;5.590;2023-06-22T13:13:21;44.35;;;39.78;;
29848;SDS011;16728;50.832;5.590;2023-06-22T13:16:25;43.50;;;38.83;;
29848;SDS011;16728;50.832;5.590;2023-06-22T13:19:27;47.92;;;39.42;;
29848;SDS011;16728;50.832;5.590;2023-06-22T13:22:35;44.70;;;39.97;;
29848;SDS011;16728;50.832;5.590;2023-06-22T13:25:41;44.47;;;39.75;;
29848;SDS011;16728;50.832;5.590;2023-06-22T13:28:43;44.17;;;39.40;;
29848;SDS011;16728;50.832;5.590;2023-06-22T13:31:45;44.05;;;39.42;;
29848;SDS011;16728;50.832;5.590;2023-06-22T13:34:48;42.88;;;38.17;;
29848;SDS011;16728;50.832;5.590;2023-06-22T13:37:50;43.88;;;37.90;;
29848;SDS011;16728;50.832;5.590;2023-06-22T13:40:52;41.72;;;37.25;;
29848;SDS011;16728;50.832;5.590;2023-06-22T13:43:56;41.42;;;36.97;;
29848;SDS011;16728;50.832;5.590;2023-06-22T13:46:59;41.50;;;37.10;;
29848;SDS011;16728;50.832;5.590;2023-06-22T13:50:01;41.75;;;37.40;;
29848;SDS011;16728;50.832;5.590;2023-06-22T13:53:02;42.85;;;37.40;;
29848;SDS011;16728;50.832;5.590;2023-06-22T13:56:04;39.13;;;35.00;;
29848;SDS011;16728;50.832;5.590;2023-06-22T13:59:09;40.83;;;34.92;;
29848;SDS011;16728;50.832;5.590;2023-06-22T14:02:11;41.63;;;35.28;;
29848;SDS011;16728;50.832;5.590;2023-06-22T14:05:13;41.17;;;35.88;;
29848;SDS011;16728;50.832;5.590;2023-06-22T14:08:14;45.15;;;36.55;;
29848;SDS011;16728;50.832;5.590;2023-06-22T14:11:40;42.13;;;36.08;;
29848;SDS011;16728;50.832;5.590;2023-06-22T14:14:41;40.17;;;35.05;;
29848;SDS011;16728;50.832;5.590;2023-06-22T14:17:43;38.60;;;33.22;;
29848;SDS011;16728;50.832;5.590;2023-06-22T14:20:45;38.80;;;34.60;;
29848;SDS011;16728;50.832;5.590;2023-06-22T14:23:49;38.92;;;34.05;;
29848;SDS011;16728;50.832;5.590;2023-06-22T14:26:51;36.85;;;32.03;;
29848;SDS011;16728;50.832;5.590;2023-06-22T14:29:58;35.22;;;30.80;;
29848;SDS011;16728;50.832;5.590;2023-06-22T14:33:00;34.78;;;29.58;;
29848;SDS011;16728;50.832;5.590;2023-06-22T14:36:07;35.63;;;30.77;;
29848;SDS011;16728;50.832;5.590;2023-06-22T14:39:12;33.70;;;30.02;;
29848;SDS011;16728;50.832;5.590;2023-06-22T14:42:14;32.53;;;29.13;;
29848;SDS011;16728;50.832;5.590;2023-06-22T14:45:19;29.25;;;26.33;;
29848;SDS011;16728;50.832;5.590;2023-06-22T14:48:21;28.02;;;24.77;;
29848;SDS011;16728;50.832;5.590;2023-06-22T14:51:24;26.67;;;24.00;;
29848;SDS011;16728;50.832;5.590;2023-06-22T14:54:25;26.70;;;23.90;;
29848;SDS011;16728;50.832;5.590;2023-06-22T14:57:27;29.17;;;23.50;;
29848;SDS011;16728;50.832;5.590;2023-06-22T15:00:30;24.52;;;22.00;;
29848;SDS011;16728;50.832;5.590;2023-06-22T15:03:33;23.67;;;21.30;;
29848;SDS011;16728;50.832;5.590;2023-06-22T15:06:37;25.05;;;22.42;;
29848;SDS011;16728;50.832;5.590;2023-06-22T15:09:39;25.33;;;22.83;;
29848;SDS011;16728;50.832;5.590;2023-06-22T15:12:43;22.55;;;20.33;;
29848;SDS011;16728;50.832;5.590;2023-06-22T15:15:46;21.85;;;19.75;;
29848;SDS011;16728;50.832;5.590;2023-06-22T15:18:49;22.57;;;20.37;;
29848;SDS011;16728;50.832;5.590;2023-06-22T15:21:50;20.20;;;18.20;;
29848;SDS011;16728;50.832;5.590;2023-06-22T15:24:54;19.75;;;17.85;;
29848;SDS011;16728;50.832;5.590;2023-06-22T15:27:59;17.20;;;15.50;;
29848;SDS011;16728;50.832;5.590;2023-06-22T15:31:06;16.85;;;15.25;;
29848;SDS011;16728;50.832;5.590;2023-06-22T15:34:08;16.10;;;14.60;;
29848;SDS011;16728;50.832;5.590;2023-06-22T15:37:11;15.35;;;13.80;;
29848;SDS011;16728;50.832;5.590;2023-06-22T15:40:13;15.75;;;14.35;;
29848;SDS011;16728;50.832;5.590;2023-06-22T15:43:15;16.27;;;14.88;;
29848;SDS011;16728;50.832;5.590;2023-06-22T15:46:24;15.93;;;14.38;;
29848;SDS011;16728;50.832;5.590;2023-06-22T15:49:26;15.52;;;14.13;;
29848;SDS011;16728;50.832;5.590;2023-06-22T15:52:28;14.82;;;13.52;;
29848;SDS011;16728;50.832;5.590;2023-06-22T15:55:30;14.25;;;13.00;;
29848;SDS011;16728;50.832;5.590;2023-06-22T15:58:32;14.75;;;13.35;;
29848;SDS011;16728;50.832;5.590;2023-06-22T16:01:35;16.67;;;15.07;;
29848;SDS011;16728;50.832;5.590;2023-06-22T16:07:39;17.15;;;15.50;;
29848;SDS011;16728;50.832;5.590;2023-06-22T16:10:41;17.50;;;15.80;;
29848;SDS011;16728;50.832;5.590;2023-06-22T16:13:43;18.13;;;16.30;;
29848;SDS011;16728;50.832;5.590;2023-06-22T16:19:53;18.08;;;16.27;;
29848;SDS011;16728;50.832;5.590;2023-06-22T16:22:57;17.48;;;15.88;;
29848;SDS011;16728;50.832;5.590;2023-06-22T16:26:01;17.20;;;15.50;;
29848;SDS011;16728;50.832;5.590;2023-06-22T16:29:03;18.88;;;16.88;;
29848;SDS011;16728;50.832;5.590;2023-06-22T16:32:13;19.52;;;17.55;;
29848;SDS011;16728;50.832;5.590;2023-06-22T16:39:06;19.02;;;17.23;;
29848;SDS011;16728;50.832;5.590;2023-06-22T16:42:08;18.15;;;16.35;;
29848;SDS011;16728;50.832;5.590;2023-06-22T16:45:13;18.33;;;16.52;;
29848;SDS011;16728;50.832;5.590;2023-06-22T16:48:16;17.48;;;15.75;;
29848;SDS011;16728;50.832;5.590;2023-06-22T16:51:18;17.55;;;15.88;;
29848;SDS011;16728;50.832;5.590;2023-06-22T16:54:20;17.55;;;15.90;;
29848;SDS011;16728;50.832;5.590;2023-06-22T16:57:22;16.70;;;15.13;;
29848;SDS011;16728;50.832;5.590;2023-06-22T17:00:27;17.02;;;15.35;;
29848;SDS011;16728;50.832;5.590;2023-06-22T17:03:33;17.63;;;15.93;;
29848;SDS011;16728;50.832;5.590;2023-06-22T17:06:41;18.25;;;16.48;;
29848;SDS011;16728;50.832;5.590;2023-06-22T17:09:51;19.17;;;17.30;;
29848;SDS011;16728;50.832;5.590;2023-06-22T17:12:53;22.80;;;18.60;;
29848;SDS011;16728;50.832;5.590;2023-06-22T17:15:59;21.30;;;19.20;;
29848;SDS011;16728;50.832;5.590;2023-06-22T17:19:03;19.40;;;17.45;;
29848;SDS011;16728;50.832;5.590;2023-06-22T17:22:07;19.55;;;17.65;;
29848;SDS011;16728;50.832;5.590;2023-06-22T17:25:09;20.50;;;18.45;;
29848;SDS011;16728;50.832;5.590;2023-06-22T17:28:11;21.80;;;19.35;;
29848;SDS011;16728;50.832;5.590;2023-06-22T17:31:13;19.60;;;17.60;;
29848;SDS011;16728;50.832;5.590;2023-06-22T17:34:16;19.60;;;17.60;;
29848;SDS011;16728;50.832;5.590;2023-06-22T17:37:25;19.30;;;15.90;;
29848;SDS011;16728;50.832;5.590;2023-06-22T17:40:28;16.52;;;14.82;;
29848;SDS011;16728;50.832;5.590;2023-06-22T17:43:45;18.27;;;16.48;;
29848;SDS011;16728;50.832;5.590;2023-06-22T17:46:55;21.40;;;19.20;;
29848;SDS011;16728;50.832;5.590;2023-06-22T17:50:05;20.23;;;18.13;;
29848;SDS011;16728;50.832;5.590;2023-06-22T17:53:11;20.50;;;18.40;;
29848;SDS011;16728;50.832;5.590;2023-06-22T17:56:14;19.33;;;17.42;;
29848;SDS011;16728;50.832;5.590;2023-06-22T17:59:20;19.63;;;17.52;;
29848;SDS011;16728;50.832;5.590;2023-06-22T18:02:24;20.30;;;18.27;;
29848;SDS011;16728;50.832;5.590;2023-06-22T18:05:30;21.38;;;19.27;;
29848;SDS011;16728;50.832;5.590;2023-06-22T18:08:37;23.27;;;20.80;;
29848;SDS011;16728;50.832;5.590;2023-06-22T18:11:44;24.90;;;22.48;;
29848;SDS011;16728;50.832;5.590;2023-06-22T18:14:48;25.73;;;23.13;;
29848;SDS011;16728;50.832;5.590;2023-06-22T18:17:53;25.02;;;22.60;;
29848;SDS011;16728;50.832;5.590;2023-06-22T18:20:56;23.73;;;21.42;;
29848;SDS011;16728;50.832;5.590;2023-06-22T18:24:01;24.50;;;22.10;;
29848;SDS011;16728;50.832;5.590;2023-06-22T18:27:03;26.08;;;23.45;;
29848;SDS011;16728;50.832;5.590;2023-06-22T18:30:07;25.10;;;22.63;;
29848;SDS011;16728;50.832;5.590;2023-06-22T18:33:18;24.63;;;22.23;;
29848;SDS011;16728;50.832;5.590;2023-06-22T18:36:25;26.00;;;23.23;;
29848;SDS011;16728;50.832;5.590;2023-06-22T18:39:29;25.45;;;22.88;;
29848;SDS011;16728;50.832;5.590;2023-06-22T18:42:33;24.80;;;22.35;;
29848;SDS011;16728;50.832;5.590;2023-06-22T18:45:44;23.92;;;21.63;;
29848;SDS011;16728;50.832;5.590;2023-06-22T18:48:46;23.30;;;21.00;;
29848;SDS011;16728;50.832;5.590;2023-06-22T18:51:51;22.92;;;20.65;;
29848;SDS011;16728;50.832;5.590;2023-06-22T18:54:55;23.50;;;21.13;;
29848;SDS011;16728;50.832;5.590;2023-06-22T18:58:14;23.60;;;21.20;;
29848;SDS011;16728;50.832;5.590;2023-06-22T19:01:18;23.25;;;21.00;;
29848;SDS011;16728;50.832;5.590;2023-06-22T19:04:27;25.50;;;22.80;;
29848;SDS011;16728;50.832;5.590;2023-06-22T19:07:55;25.63;;;22.95;;
29848;SDS011;16728;50.832;5.590;2023-06-22T19:11:03;24.10;;;21.70;;
29848;SDS011;16728;50.832;5.590;2023-06-22T19:14:18;23.40;;;21.10;;
29848;SDS011;16728;50.832;5.590;2023-06-22T19:17:23;24.95;;;22.45;;
29848;SDS011;16728;50.832;5.590;2023-06-22T19:20:31;23.52;;;21.00;;